Time;durP1;ratioP1;P1;durP2;ratioP2;P2;SDS_P1;SDS_P2;PMS_P1;PMS_P2;Temp;Humidity;BMP_temperature;BMP_pressure;BME280_temperature;BME280_humidity;BME280_pressure;Samples;Min_cycle;Max_cycle;Signal;HPM_P1;HPM_P2
2021/12/20 00:00:41;;;;;;;2.75;0.43;;;;;;;;;;4987664;28;20089;-73
2021/12/20 00:03:07;;;;;;;1.05;0.40;;;;;;;;;;4987029;28;20125;-71
2021/12/20 00:05:32;;;;;;;0.90;0.40;;;;;;;;;;5005327;28;20165;-71
2021/12/20 00:07:58;;;;;;;2.55;0.40;;;;;;;;;;5005133;28;20030;-73
2021/12/20 00:10:23;;;;;;;3.83;0.50;;;;;;;;;;5005018;28;20026;-71
2021/12/20 00:12:50;;;;;;;3.05;0.52;;;;;;;;;;5004900;28;20065;-72
2021/12/20 00:15:17;;;;;;;1.67;0.40;;;;;;;;;;4987420;28;20088;-72
2021/12/20 00:17:42;;;;;;;0.95;0.40;;;;;;;;;;5004817;28;20061;-72
2021/12/20 00:20:09;;;;;;;0.93;0.50;;;;;;;;;;5004992;28;20509;-72
2021/12/20 00:22:35;;;;;;;1.15;0.40;;;;;;;;;;4987290;28;20153;-73
2021/12/20 00:25:00;;;;;;;1.92;0.50;;;;;;;;;;5005031;28;20089;-73
2021/12/20 00:27:26;;;;;;;2.58;0.70;;;;;;;;;;5004618;28;20023;-71
2021/12/20 00:29:52;;;;;;;1.08;0.50;;;;;;;;;;4987384;28;20049;-71
2021/12/20 00:32:17;;;;;;;2.38;0.75;;;;;;;;;;5004342;28;20072;-69
2021/12/20 00:34:44;;;;;;;0.38;0.38;;;;;;;;;;5004661;28;20034;-71
2021/12/20 00:42:43;;;;;;;4.00;1.10;;;;;;;;;;5004276;28;20045;-73
2021/12/20 00:45:11;;;;;;;2.35;0.90;;;;;;;;;;5004385;28;20034;-72
2021/12/20 00:47:37;;;;;;;1.65;0.57;;;;;;;;;;5004130;28;20031;-74
2021/12/20 00:50:08;;;;;;;0.88;0.60;;;;;;;;;;5004337;28;20090;-71
2021/12/20 00:52:34;;;;;;;0.68;0.50;;;;;;;;;;5004353;28;20069;-74
2021/12/20 00:54:59;;;;;;;3.25;1.02;;;;;;;;;;5004242;28;20022;-74
2021/12/20 00:57:25;;;;;;;2.08;0.52;;;;;;;;;;5004134;28;20029;-72
2021/12/20 00:59:51;;;;;;;0.50;0.40;;;;;;;;;;5004192;28;20027;-71
2021/12/20 01:02:16;;;;;;;1.80;0.70;;;;;;;;;;4986488;28;20022;-71
2021/12/20 01:04:42;;;;;;;2.30;0.75;;;;;;;;;;5004087;28;20450;-73
2021/12/20 01:07:07;;;;;;;1.48;0.50;;;;;;;;;;5003963;28;20037;-75
2021/12/20 01:09:33;;;;;;;0.73;0.40;;;;;;;;;;5004201;28;20105;-71
2021/12/20 01:12:03;;;;;;;1.10;0.60;;;;;;;;;;5003876;28;20034;-72
2021/12/20 01:14:32;;;;;;;3.53;0.90;;;;;;;;;;5003665;28;20082;-71
2021/12/20 01:17:03;;;;;;;2.08;0.90;;;;;;;;;;4985852;28;20570;-72
2021/12/20 01:19:28;;;;;;;3.13;0.85;;;;;;;;;;4986210;28;20525;-71
2021/12/20 01:21:54;;;;;;;2.05;0.60;;;;;;;;;;5003623;28;20031;-71
2021/12/20 01:24:20;;;;;;;3.10;1.02;;;;;;;;;;5003435;28;20100;-72
2021/12/20 01:26:45;;;;;;;3.40;0.98;;;;;;;;;;5003727;28;20027;-72
2021/12/20 01:29:11;;;;;;;3.78;0.73;;;;;;;;;;4986375;28;20030;-71
2021/12/20 01:31:36;;;;;;;4.47;0.90;;;;;;;;;;5003362;28;20042;-72
2021/12/20 01:34:02;;;;;;;2.53;0.93;;;;;;;;;;5003929;28;20053;-72
2021/12/20 01:36:27;;;;;;;1.13;0.60;;;;;;;;;;5003390;28;20041;-72
2021/12/20 01:38:53;;;;;;;2.72;0.70;;;;;;;;;;4985748;28;20022;-71
2021/12/20 01:41:18;;;;;;;3.45;0.80;;;;;;;;;;5003474;28;20031;-75
2021/12/20 01:43:44;;;;;;;2.72;0.85;;;;;;;;;;4985849;28;20057;-70
2021/12/20 01:46:10;;;;;;;2.50;0.90;;;;;;;;;;5003230;28;20358;-70
2021/12/20 01:48:37;;;;;;;3.58;1.23;;;;;;;;;;4986022;28;20034;-71
2021/12/20 01:53:29;;;;;;;2.85;0.70;;;;;;;;;;5003550;28;20034;-72
2021/12/20 01:55:55;;;;;;;3.95;1.45;;;;;;;;;;4985817;28;20038;-72
2021/12/20 01:58:23;;;;;;;1.90;0.80;;;;;;;;;;5003469;28;20077;-70
2021/12/20 02:03:51;;;;;;;3.75;0.80;;;;;;;;;;4969704;28;20361;-71
2021/12/20 02:06:29;;;;;;;4.38;1.50;;;;;;;;;;5003349;28;20058;-70
2021/12/20 02:08:57;;;;;;;6.30;1.10;;;;;;;;;;4985614;28;20554;-73
2021/12/20 02:11:22;;;;;;;3.08;1.52;;;;;;;;;;5003299;28;20042;-70
2021/12/20 02:13:49;;;;;;;4.32;1.38;;;;;;;;;;4985576;28;20030;-71
2021/12/20 02:16:14;;;;;;;2.55;1.30;;;;;;;;;;5003097;28;20026;-71
2021/12/20 02:18:40;;;;;;;1.95;1.10;;;;;;;;;;4985629;28;20025;-71
2021/12/20 02:21:05;;;;;;;5.82;1.33;;;;;;;;;;5003153;28;20030;-73
2021/12/20 02:23:31;;;;;;;2.25;1.35;;;;;;;;;;5002984;28;20031;-71
2021/12/20 02:25:59;;;;;;;4.32;1.10;;;;;;;;;;5003298;28;20030;-70
2021/12/20 02:28:24;;;;;;;3.53;1.20;;;;;;;;;;5007097;28;20026;-72
2021/12/20 02:36:54;;;;;;;5.80;1.80;;;;;;;;;;4989312;28;20576;-72
2021/12/20 02:39:06;;;;;;;3.30;1.40;;;;;;;;;;5005921;28;20118;-72
2021/12/20 02:41:33;;;;;;;4.07;1.52;;;;;;;;;;5006707;28;20043;-72
2021/12/20 02:44:05;;;;;;;3.40;1.20;;;;;;;;;;5006525;28;20030;-70
2021/12/20 02:49:11;;;;;;;4.10;1.15;;;;;;;;;;5006607;28;20022;-71
2021/12/20 02:51:38;;;;;;;2.25;1.30;;;;;;;;;;5006131;28;20041;-71
2021/12/20 02:54:05;;;;;;;2.63;1.60;;;;;;;;;;4988740;28;20030;-71
2021/12/20 02:56:31;;;;;;;4.65;1.60;;;;;;;;;;5006348;28;20030;-72
2021/12/20 02:58:57;;;;;;;6.07;1.60;;;;;;;;;;5006274;28;20041;-73
2021/12/20 03:01:23;;;;;;;2.17;1.35;;;;;;;;;;4988730;28;20030;-74
2021/12/20 03:03:52;;;;;;;3.20;1.63;;;;;;;;;;5006626;28;20032;-74
2021/12/20 03:06:25;;;;;;;4.47;1.55;;;;;;;;;;4988511;28;20034;-71
2021/12/20 03:08:53;;;;;;;;;;;;;;;;;;4989058;28;20058;-74
2021/12/20 03:11:20;;;;;;;3.97;2.15;;;;;;;;;;4988509;28;20305;-72
2021/12/20 03:13:50;;;;;;;5.75;1.83;;;;;;;;;;4988710;28;20031;-72
2021/12/20 03:16:16;;;;;;;4.57;2.10;;;;;;;;;;5005889;28;20034;-73
2021/12/20 03:18:41;;;;;;;5.68;2.97;;;;;;;;;;4988444;28;20151;-70
2021/12/20 03:21:07;;;;;;;4.18;1.85;;;;;;;;;;5005830;28;20037;-72
2021/12/20 03:23:32;;;;;;;5.55;2.08;;;;;;;;;;5005133;28;20031;-71
2021/12/20 03:25:57;;;;;;;5.57;2.08;;;;;;;;;;5005728;28;20034;-70
2021/12/20 03:28:23;;;;;;;6.05;2.40;;;;;;;;;;5005764;28;20034;-72
2021/12/20 03:30:48;;;;;;;5.03;2.40;;;;;;;;;;4987461;28;20466;-72
2021/12/20 03:33:14;;;;;;;5.25;2.05;;;;;;;;;;4987704;28;20122;-73
2021/12/20 03:35:40;;;;;;;4.68;2.30;;;;;;;;;;5005544;28;20507;-73
2021/12/20 03:38:06;;;;;;;5.25;2.03;;;;;;;;;;5004812;28;20033;-73
2021/12/20 03:40:32;;;;;;;4.75;1.77;;;;;;;;;;5005690;28;20027;-73
2021/12/20 03:42:58;;;;;;;3.00;1.70;;;;;;;;;;5005447;28;20103;-72
2021/12/20 03:45:23;;;;;;;3.30;1.80;;;;;;;;;;5005791;28;20464;-72
2021/12/20 03:47:49;;;;;;;2.88;1.33;;;;;;;;;;5005239;28;20034;-73
2021/12/20 03:50:15;;;;;;;2.65;1.48;;;;;;;;;;5005743;28;20072;-74
2021/12/20 03:52:41;;;;;;;1.92;1.20;;;;;;;;;;5005314;28;20023;-73
2021/12/20 03:55:12;;;;;;;3.55;1.42;;;;;;;;;;5005318;28;20037;-72
2021/12/20 03:57:38;;;;;;;2.88;1.27;;;;;;;;;;5005284;28;20033;-71
2021/12/20 04:00:05;;;;;;;2.15;1.17;;;;;;;;;;5005241;28;20027;-72
2021/12/20 04:02:38;;;;;;;3.92;1.50;;;;;;;;;;4987565;28;20036;-73
2021/12/20 04:05:04;;;;;;;3.10;1.10;;;;;;;;;;4987655;28;20048;-72
2021/12/20 04:07:29;;;;;;;2.63;1.88;;;;;;;;;;5005045;28;20070;-72
2021/12/20 04:09:54;;;;;;;1.40;1.00;;;;;;;;;;5005459;28;20038;-73
2021/12/20 04:12:20;;;;;;;4.22;1.20;;;;;;;;;;4987118;28;20065;-75
2021/12/20 04:14:45;;;;;;;3.17;1.00;;;;;;;;;;5005137;28;20106;-75
2021/12/20 04:17:11;;;;;;;1.83;1.05;;;;;;;;;;5004982;28;20027;-75
2021/12/20 04:19:36;;;;;;;2.83;1.17;;;;;;;;;;5005038;28;20033;-72
2021/12/20 04:22:02;;;;;;;3.88;0.90;;;;;;;;;;5004755;28;20030;-74
2021/12/20 04:24:27;;;;;;;2.38;1.00;;;;;;;;;;5004874;28;20209;-74
2021/12/20 04:26:53;;;;;;;2.22;0.90;;;;;;;;;;4987010;28;20157;-72
2021/12/20 04:29:19;;;;;;;1.55;0.95;;;;;;;;;;5004832;28;20356;-74
2021/12/20 04:31:45;;;;;;;1.58;0.80;;;;;;;;;;4997595;28;20055;-74
2021/12/20 04:34:10;;;;;;;1.00;0.88;;;;;;;;;;4985035;28;20019;-72
2021/12/20 04:36:36;;;;;;;1.17;0.73;;;;;;;;;;4985219;28;20042;-73
2021/12/20 04:39:04;;;;;;;2.35;1.00;;;;;;;;;;4984462;28;20042;-71
2021/12/20 04:41:29;;;;;;;2.20;1.05;;;;;;;;;;4984868;28;20541;-73
2021/12/20 04:43:55;;;;;;;2.30;0.90;;;;;;;;;;4967649;28;20077;-73
2021/12/20 04:46:20;;;;;;;1.52;0.80;;;;;;;;;;4985040;28;20027;-72
2021/12/20 04:48:46;;;;;;;1.55;0.70;;;;;;;;;;4984968;28;20030;-73
2021/12/20 04:51:11;;;;;;;0.95;0.55;;;;;;;;;;4983950;28;20037;-70
2021/12/20 04:53:37;;;;;;;2.22;0.90;;;;;;;;;;4985070;28;20042;-74
2021/12/20 04:56:02;;;;;;;1.20;0.80;;;;;;;;;;4984776;28;20057;-72
2021/12/20 04:58:28;;;;;;;3.53;0.93;;;;;;;;;;4967170;28;20101;-72
2021/12/20 05:00:53;;;;;;;2.08;0.90;;;;;;;;;;4984525;28;20058;-74
2021/12/20 05:03:22;;;;;;;1.23;0.57;;;;;;;;;;4984679;28;20034;-71
2021/12/20 05:05:47;;;;;;;1.38;0.77;;;;;;;;;;4984030;28;20027;-72
2021/12/20 05:08:15;;;;;;;2.35;0.80;;;;;;;;;;4984415;28;20046;-73
2021/12/20 05:10:42;;;;;;;1.30;0.80;;;;;;;;;;4984913;28;20094;-74
2021/12/20 05:13:09;;;;;;;3.80;0.75;;;;;;;;;;4984701;28;20027;-72
2021/12/20 05:15:37;;;;;;;0.60;0.60;;;;;;;;;;4984501;28;20058;-72
2021/12/20 05:18:04;;;;;;;2.13;0.75;;;;;;;;;;4984020;28;20046;-72
2021/12/20 05:20:30;;;;;;;1.17;0.80;;;;;;;;;;4984425;28;20031;-72
2021/12/20 05:22:56;;;;;;;0.90;0.70;;;;;;;;;;4984394;28;20034;-71
2021/12/20 05:25:22;;;;;;;2.70;1.10;;;;;;;;;;4966849;28;20264;-72
2021/12/20 05:27:48;;;;;;;0.80;0.60;;;;;;;;;;4966540;28;20026;-74
2021/12/20 05:30:14;;;;;;;1.75;0.85;;;;;;;;;;4984454;28;20062;-73
2021/12/20 05:32:40;;;;;;;2.17;0.90;;;;;;;;;;5011802;28;20129;-72
2021/12/20 05:35:07;;;;;;;3.25;0.80;;;;;;;;;;5005636;28;20585;-72
2021/12/20 05:37:33;;;;;;;2.60;0.70;;;;;;;;;;5023030;28;20057;-73
2021/12/20 05:39:58;;;;;;;1.30;0.70;;;;;;;;;;5005556;28;20021;-71
2021/12/20 05:42:24;;;;;;;2.97;0.98;;;;;;;;;;5023205;28;20022;-71
2021/12/20 05:44:50;;;;;;;1.58;0.73;;;;;;;;;;5005557;28;20187;-70
2021/12/20 05:47:16;;;;;;;1.77;0.90;;;;;;;;;;5023052;28;20029;-72
2021/12/20 05:49:42;;;;;;;2.28;0.90;;;;;;;;;;5023467;28;20034;-72
2021/12/20 05:52:07;;;;;;;0.75;0.50;;;;;;;;;;5022937;28;20061;-73
2021/12/20 05:54:33;;;;;;;3.80;0.80;;;;;;;;;;5023212;28;20188;-71
2021/12/20 05:56:58;;;;;;;1.52;0.60;;;;;;;;;;5023027;28;20029;-70
2021/12/20 05:59:24;;;;;;;1.58;0.50;;;;;;;;;;5022987;28;20335;-72
2021/12/20 06:01:50;;;;;;;0.35;0.30;;;;;;;;;;5024492;28;20040;-72
2021/12/20 06:04:15;;;;;;;0.77;0.50;;;;;;;;;;5027259;28;20393;-72
2021/12/20 06:06:41;;;;;;;0.75;0.50;;;;;;;;;;5026997;28;20022;-75
2021/12/20 06:09:06;;;;;;;0.80;0.50;;;;;;;;;;5027107;28;20052;-74
2021/12/20 06:11:32;;;;;;;0.30;0.30;;;;;;;;;;5026795;28;20029;-72
2021/12/20 06:13:58;;;;;;;2.72;0.70;;;;;;;;;;5025768;28;20022;-71
2021/12/20 06:16:24;;;;;;;1.70;0.47;;;;;;;;;;5025426;28;20033;-74
2021/12/20 06:18:51;;;;;;;1.20;0.50;;;;;;;;;;5026622;28;20026;-73
2021/12/20 06:21:18;;;;;;;2.88;0.65;;;;;;;;;;5009029;28;20040;-72
2021/12/20 06:23:43;;;;;;;1.30;0.50;;;;;;;;;;5009232;28;20132;-71
2021/12/20 06:26:09;;;;;;;1.75;0.40;;;;;;;;;;5026821;28;20026;-72
2021/12/20 06:28:34;;;;;;;0.95;0.50;;;;;;;;;;5008982;28;20030;-71
2021/12/20 06:30:59;;;;;;;1.90;0.60;;;;;;;;;;5026504;28;20054;-72
2021/12/20 06:33:25;;;;;;;1.38;0.52;;;;;;;;;;5008745;28;20026;-73
2021/12/20 06:35:51;;;;;;;0.82;0.50;;;;;;;;;;5008638;28;20025;-74
2021/12/20 06:38:20;;;;;;;1.15;0.50;;;;;;;;;;5026291;28;20045;-72
2021/12/20 06:40:46;;;;;;;0.52;0.43;;;;;;;;;;5026307;28;20080;-71
2021/12/20 06:43:12;;;;;;;1.75;0.70;;;;;;;;;;5025698;28;20026;-73
2021/12/20 06:45:38;;;;;;;1.42;0.40;;;;;;;;;;5008984;28;20037;-73
2021/12/20 06:48:04;;;;;;;1.17;0.40;;;;;;;;;;5008524;28;20070;-72
2021/12/20 06:50:30;;;;;;;0.75;0.50;;;;;;;;;;5008542;28;20076;-72
2021/12/20 06:52:56;;;;;;;0.52;0.40;;;;;;;;;;5026179;28;20033;-72
2021/12/20 06:55:22;;;;;;;0.77;0.55;;;;;;;;;;5026182;28;20090;-71
2021/12/20 06:57:48;;;;;;;2.10;0.50;;;;;;;;;;5008227;28;20030;-73
2021/12/20 07:00:14;;;;;;;1.48;0.60;;;;;;;;;;5008223;28;20034;-71
2021/12/20 07:02:39;;;;;;;1.77;0.60;;;;;;;;;;5026123;28;20510;-71
2021/12/20 07:05:05;;;;;;;0.50;0.45;;;;;;;;;;5026084;28;20034;-73
2021/12/20 07:07:31;;;;;;;1.27;0.70;;;;;;;;;;5026220;28;20060;-71
2021/12/20 07:09:57;;;;;;;1.30;0.63;;;;;;;;;;5025879;28;20030;-72
2021/12/20 07:12:23;;;;;;;2.08;0.70;;;;;;;;;;5007805;28;20030;-72
2021/12/20 07:14:50;;;;;;;2.10;0.70;;;;;;;;;;5007521;28;20077;-71
2021/12/20 07:17:17;;;;;;;0.93;0.60;;;;;;;;;;5025846;28;20037;-72
2021/12/20 07:19:43;;;;;;;0.70;0.57;;;;;;;;;;5025526;28;20026;-72
2021/12/20 07:22:09;;;;;;;2.55;0.80;;;;;;;;;;5025129;28;20430;-72
2021/12/20 07:24:34;;;;;;;1.55;0.75;;;;;;;;;;5007996;28;20045;-72
2021/12/20 07:26:59;;;;;;;1.67;0.70;;;;;;;;;;5025350;28;20069;-72
2021/12/20 07:29:25;;;;;;;1.17;0.73;;;;;;;;;;5025678;28;20034;-71
2021/12/20 07:31:50;;;;;;;1.42;0.57;;;;;;;;;;5007475;28;20493;-74
2021/12/20 07:34:16;;;;;;;1.13;0.60;;;;;;;;;;5025966;28;20041;-72
2021/12/20 07:36:41;;;;;;;2.30;0.70;;;;;;;;;;5025318;28;20482;-70
2021/12/20 07:39:07;;;;;;;2.22;0.65;;;;;;;;;;5025290;28;20424;-71
2021/12/20 07:41:33;;;;;;;3.50;0.43;;;;;;;;;;5025389;28;20042;-72
2021/12/20 07:43:59;;;;;;;1.13;0.68;;;;;;;;;;5025483;28;20028;-71
2021/12/20 07:46:24;;;;;;;2.20;0.70;;;;;;;;;;5025550;28;20029;-71
2021/12/20 07:48:50;;;;;;;1.88;0.60;;;;;;;;;;5025400;28;20026;-72
2021/12/20 07:51:17;;;;;;;3.55;0.52;;;;;;;;;;5025151;28;20393;-72
2021/12/20 07:53:42;;;;;;;1.63;0.65;;;;;;;;;;5025181;28;20128;-73
2021/12/20 07:56:09;;;;;;;1.10;0.60;;;;;;;;;;5007439;28;20026;-71
2021/12/20 07:58:34;;;;;;;1.10;0.75;;;;;;;;;;5007372;28;20028;-70
2021/12/20 08:01:01;;;;;;;0.57;0.38;;;;;;;;;;5025040;28;20050;-73
2021/12/20 08:03:28;;;;;;;1.00;0.45;;;;;;;;;;5025151;28;20051;-71
2021/12/20 08:05:53;;;;;;;0.85;0.60;;;;;;;;;;5007159;28;20537;-72
2021/12/20 08:08:19;;;;;;;2.30;0.60;;;;;;;;;;5024541;28;20034;-70
2021/12/20 08:10:45;;;;;;;0.40;0.40;;;;;;;;;;5024589;28;20096;-71
2021/12/20 08:13:12;;;;;;;1.65;0.40;;;;;;;;;;5024473;28;20061;-72
2021/12/20 08:15:38;;;;;;;0.50;0.40;;;;;;;;;;5024661;28;20014;-71
2021/12/20 08:18:04;;;;;;;1.92;0.73;;;;;;;;;;5024497;28;20509;-74
2021/12/20 08:20:30;;;;;;;1.70;0.60;;;;;;;;;;5023777;28;20067;-72
2021/12/20 08:22:55;;;;;;;0.98;0.55;;;;;;;;;;5023476;28;20082;-73
2021/12/20 08:25:21;;;;;;;0.65;0.40;;;;;;;;;;5023875;28;20026;-73
2021/12/20 08:27:49;;;;;;;2.20;0.50;;;;;;;;;;5023572;28;20056;-73
2021/12/20 08:30:16;;;;;;;1.20;0.50;;;;;;;;;;5023837;28;20076;-74
2021/12/20 08:32:42;;;;;;;0.65;0.45;;;;;;;;;;5022804;28;20081;-73
2021/12/20 08:35:09;;;;;;;1.20;0.70;;;;;;;;;;5023713;28;20033;-71
2021/12/20 08:37:35;;;;;;;0.40;0.35;;;;;;;;;;5024470;28;20025;-72
2021/12/20 08:40:02;;;;;;;1.15;0.40;;;;;;;;;;5024485;28;20022;-71
2021/12/20 08:42:27;;;;;;;1.60;0.30;;;;;;;;;;5023827;28;20037;-71
2021/12/20 08:44:53;;;;;;;2.83;0.50;;;;;;;;;;5006524;28;20026;-75
2021/12/20 08:47:18;;;;;;;2.25;0.50;;;;;;;;;;5024160;28;20030;-71
2021/12/20 08:49:44;;;;;;;2.30;0.52;;;;;;;;;;5024256;28;20072;-73
2021/12/20 08:52:11;;;;;;;1.05;0.40;;;;;;;;;;5023806;28;20037;-73
2021/12/20 08:54:37;;;;;;;3.13;0.50;;;;;;;;;;5023986;28;20247;-71
2021/12/20 08:57:02;;;;;;;2.38;0.50;;;;;;;;;;5005834;28;20576;-71
2021/12/20 08:59:28;;;;;;;3.20;0.60;;;;;;;;;;5023709;28;20154;-72
2021/12/20 09:01:53;;;;;;;3.30;0.43;;;;;;;;;;5023676;28;20037;-74
2021/12/20 09:04:19;;;;;;;3.88;0.70;;;;;;;;;;5023866;28;20030;-73
2021/12/20 09:06:45;;;;;;;2.22;0.88;;;;;;;;;;5005494;28;20033;-74
2021/12/20 09:09:13;;;;;;;2.92;0.75;;;;;;;;;;5023733;28;20095;-71
2021/12/20 09:11:39;;;;;;;3.40;0.90;;;;;;;;;;5023423;28;20102;-72
2021/12/20 09:14:05;;;;;;;3.33;1.40;;;;;;;;;;5023497;28;20042;-71
2021/12/20 09:16:30;;;;;;;2.70;1.00;;;;;;;;;;5005680;28;20041;-73
2021/12/20 09:18:56;;;;;;;3.35;1.00;;;;;;;;;;5023336;28;20037;-72
2021/12/20 09:21:22;;;;;;;2.40;1.02;;;;;;;;;;5023169;28;20068;-73
2021/12/20 09:23:48;;;;;;;2.88;1.10;;;;;;;;;;5023448;28;20022;-73
2021/12/20 09:26:14;;;;;;;9.23;1.73;;;;;;;;;;5005318;28;20044;-73
2021/12/20 09:28:40;;;;;;;3.97;1.42;;;;;;;;;;5023161;28;20076;-73
2021/12/20 09:31:07;;;;;;;7.00;1.40;;;;;;;;;;5022866;28;20041;-71
2021/12/20 09:33:35;;;;;;;6.72;1.60;;;;;;;;;;5005319;28;20045;-72
2021/12/20 09:36:02;;;;;;;3.90;1.25;;;;;;;;;;5004674;28;20030;-74
2021/12/20 09:38:30;;;;;;;3.90;1.58;;;;;;;;;;5005405;28;20467;-72
2021/12/20 09:41:16;;;;;;;2.30;1.02;;;;;;;;;;5005220;28;20061;-73
2021/12/20 09:43:52;;;;;;;1.95;0.80;;;;;;;;;;5023138;28;20466;-71
2021/12/20 09:46:21;;;;;;;2.17;0.95;;;;;;;;;;5005356;28;20026;-71
2021/12/20 09:48:49;;;;;;;2.95;1.00;;;;;;;;;;5005183;28;20030;-72
2021/12/20 09:51:16;;;;;;;4.40;1.20;;;;;;;;;;5004508;28;20029;-73
2021/12/20 09:53:41;;;;;;;1.02;0.63;;;;;;;;;;5023002;28;20038;-73
2021/12/20 09:56:10;;;;;;;2.03;0.57;;;;;;;;;;5022377;28;20034;-71
2021/12/20 09:58:41;;;;;;;0.70;0.60;;;;;;;;;;5083653;22;20482;-67
2021/12/20 10:01:12;;;;;;;1.98;0.75;;;;;;;;;;5021695;28;20035;-67
2021/12/20 10:03:38;;;;;;;1.58;0.82;;;;;;;;;;5024453;28;20033;-68
2021/12/20 10:06:05;;;;;;;3.05;1.38;;;;;;;;;;5042802;28;20514;-67
2021/12/20 10:08:36;;;;;;;2.97;1.17;;;;;;;;;;5027780;28;20236;-67
2021/12/20 10:11:05;;;;;;;1.70;0.77;;;;;;;;;;5041358;28;20032;-67
2021/12/20 10:13:36;;;;;;;2.92;0.85;;;;;;;;;;5039461;28;20025;-68
2021/12/20 10:16:12;;;;;;;1.17;0.57;;;;;;;;;;5007100;28;20034;-67
2021/12/20 10:18:38;;;;;;;1.60;0.63;;;;;;;;;;5033490;28;20033;-68
2021/12/20 10:21:03;;;;;;;2.13;0.55;;;;;;;;;;5041902;28;20044;-67
2021/12/20 10:23:32;;;;;;;1.85;0.98;;;;;;;;;;5042712;28;20099;-68
2021/12/20 10:26:09;;;;;;;6.20;1.10;;;;;;;;;;5024739;28;20041;-68
2021/12/20 10:28:37;;;;;;;2.38;0.75;;;;;;;;;;5042104;28;20033;-68
2021/12/20 10:31:15;;;;;;;4.50;0.50;;;;;;;;;;5024057;28;20109;-67
2021/12/20 10:33:59;;;;;;;1.52;0.55;;;;;;;;;;5031782;28;20026;-68
2021/12/20 10:36:25;;;;;;;0.90;0.40;;;;;;;;;;5038034;28;20088;-69
2021/12/20 10:38:56;;;;;;;2.05;0.40;;;;;;;;;;5031730;28;20081;-69
2021/12/20 10:41:36;;;;;;;0.70;0.40;;;;;;;;;;5041757;28;20029;-68
2021/12/20 10:44:15;;;;;;;2.78;0.60;;;;;;;;;;5031736;28;20033;-67
2021/12/20 10:46:53;;;;;;;1.50;0.55;;;;;;;;;;5024896;28;20030;-68
2021/12/20 10:49:24;;;;;;;1.17;0.55;;;;;;;;;;5044996;28;20056;-67
2021/12/20 10:51:51;;;;;;;1.58;0.50;;;;;;;;;;5045580;28;20537;-67
2021/12/20 10:54:21;;;;;;;1.88;0.60;;;;;;;;;;5028421;28;20022;-67
2021/12/20 10:56:57;;;;;;;1.17;0.47;;;;;;;;;;5019960;28;20505;-67
2021/12/20 10:59:27;;;;;;;3.33;0.63;;;;;;;;;;5043127;28;20045;-68
2021/12/20 11:04:50;;;;;;;1.88;0.65;;;;;;;;;;5041223;28;20309;-67
2021/12/20 11:09:50;;;;;;;1.38;0.50;;;;;;;;;;5045801;28;20446;-67
2021/12/20 11:12:29;;;;;;;1.67;0.82;;;;;;;;;;5039251;28;20385;-67
2021/12/20 11:15:00;;;;;;;3.65;0.60;;;;;;;;;;5034701;28;20026;-68
2021/12/20 11:17:28;;;;;;;3.85;1.00;;;;;;;;;;5038984;28;20053;-69
2021/12/20 11:19:55;;;;;;;1.33;0.40;;;;;;;;;;5043431;28;20040;-68
2021/12/20 11:22:26;;;;;;;1.20;0.57;;;;;;;;;;5027095;28;20156;-67
2021/12/20 11:25:03;;;;;;;0.50;0.40;;;;;;;;;;5024364;28;20097;-67
2021/12/20 11:27:37;;;;;;;1.88;0.57;;;;;;;;;;5045609;28;20036;-67
2021/12/20 11:30:18;;;;;;;2.95;0.85;;;;;;;;;;5027563;28;20029;-68
2021/12/20 11:32:46;;;;;;;1.77;0.70;;;;;;;;;;5045434;28;20084;-68
2021/12/20 11:35:12;;;;;;;2.70;0.65;;;;;;;;;;5026260;28;21570;-67
2021/12/20 11:37:37;;;;;;;1.77;0.68;;;;;;;;;;5044902;28;20033;-68
2021/12/20 11:40:07;;;;;;;3.35;0.60;;;;;;;;;;5036465;28;20151;-69
2021/12/20 11:42:36;;;;;;;0.93;0.63;;;;;;;;;;5042254;28;20037;-68
2021/12/20 11:45:06;;;;;;;1.65;0.43;;;;;;;;;;5038772;28;20117;-67
2021/12/20 11:47:46;;;;;;;3.15;0.57;;;;;;;;;;5037517;28;20026;-67
2021/12/20 11:50:14;;;;;;;1.02;0.35;;;;;;;;;;5026550;28;20108;-69
2021/12/20 11:52:46;;;;;;;2.10;0.47;;;;;;;;;;5044850;28;20060;-68
2021/12/20 11:55:27;;;;;;;0.98;0.50;;;;;;;;;;5045058;28;20033;-67
2021/12/20 11:58:02;;;;;;;1.95;0.70;;;;;;;;;;5044784;28;20048;-68
2021/12/20 12:00:30;;;;;;;3.83;0.80;;;;;;;;;;5025774;28;20106;-70
2021/12/20 12:02:58;;;;;;;1.90;0.60;;;;;;;;;;5044455;28;20033;-68
2021/12/20 12:05:37;;;;;;;2.38;0.50;;;;;;;;;;5042337;28;20029;-68
2021/12/20 12:08:27;;;;;;;3.00;0.80;;;;;;;;;;5043427;28;20044;-68
2021/12/20 12:11:05;;;;;;;0.70;0.40;;;;;;;;;;5039614;28;20029;-69
2021/12/20 12:13:59;;;;;;;0.47;0.45;;;;;;;;;;5041933;28;20085;-68
2021/12/20 12:16:54;;;;;;;2.08;0.52;;;;;;;;;;5042777;28;20056;-68
2021/12/20 12:19:38;;;;;;;0.95;0.60;;;;;;;;;;5019526;28;20065;-68
2021/12/20 12:22:23;;;;;;;1.50;0.40;;;;;;;;;;5019262;28;20034;-67
2021/12/20 12:24:51;;;;;;;0.98;0.47;;;;;;;;;;5033115;28;20116;-68
2021/12/20 12:27:28;;;;;;;1.05;0.40;;;;;;;;;;5037664;28;20030;-68
2021/12/20 12:30:12;;;;;;;2.75;0.73;;;;;;;;;;5037130;28;20021;-68
2021/12/20 12:32:58;;;;;;;2.10;0.60;;;;;;;;;;5037516;28;20030;-68
2021/12/20 12:35:51;;;;;;;2.17;0.68;;;;;;;;;;5012416;28;20079;-67
2021/12/20 12:38:26;;;;;;;1.00;0.50;;;;;;;;;;5045254;28;20026;-68
2021/12/20 12:41:11;;;;;;;0.80;0.60;;;;;;;;;;5026086;28;20029;-67
2021/12/20 12:44:15;;;;;;;0.88;0.50;;;;;;;;;;5026451;28;20047;-69
2021/12/20 12:46:43;;;;;;;1.35;0.52;;;;;;;;;;5043068;28;20029;-68
2021/12/20 12:49:21;;;;;;;0.80;0.80;;;;;;;;;;5044093;28;20025;-68
2021/12/20 12:51:50;;;;;;;1.25;0.50;;;;;;;;;;5043876;28;20061;-68
2021/12/20 12:54:44;;;;;;;1.02;0.70;;;;;;;;;;5043565;28;20030;-69
2021/12/20 12:57:10;;;;;;;4.13;0.55;;;;;;;;;;5035347;28;20044;-68
2021/12/20 12:59:38;;;;;;;0.82;0.30;;;;;;;;;;5025606;28;20046;-68
2021/12/20 13:02:13;;;;;;;1.33;0.40;;;;;;;;;;5025559;28;20025;-68
2021/12/20 13:04:47;;;;;;;1.42;0.47;;;;;;;;;;5017754;28;20382;-68
2021/12/20 13:07:21;;;;;;;1.92;0.57;;;;;;;;;;5030559;28;20284;-67
2021/12/20 13:09:48;;;;;;;0.93;0.45;;;;;;;;;;5043782;28;20060;-68
2021/12/20 13:12:44;;;;;;;1.35;0.60;;;;;;;;;;5025073;28;20032;-68
2021/12/20 13:15:32;;;;;;;2.50;0.70;;;;;;;;;;5043623;28;20033;-69
2021/12/20 13:18:07;;;;;;;0.68;0.47;;;;;;;;;;5043634;28;20254;-68
2021/12/20 13:23:13;;;;;;;1.65;0.60;;;;;;;;;;5036179;28;20025;-68
2021/12/20 13:25:56;;;;;;;3.03;0.70;;;;;;;;;;5023755;28;20486;-68
2021/12/20 13:28:25;;;;;;;2.67;0.50;;;;;;;;;;5025807;28;20014;-68
2021/12/20 13:31:20;;;;;;;1.08;0.75;;;;;;;;;;5027738;28;20030;-68
2021/12/20 13:33:51;;;;;;;;;;;;;;;;;;5014015;28;20046;-69
2021/12/20 13:36:26;;;;;;;2.40;0.80;;;;;;;;;;5015839;28;20492;-69
2021/12/20 13:38:54;;;;;;;4.13;0.70;;;;;;;;;;5019204;28;20075;-68
2021/12/20 13:41:25;;;;;;;0.68;0.45;;;;;;;;;;5043139;28;20029;-69
2021/12/20 13:43:54;;;;;;;1.40;0.43;;;;;;;;;;5025193;28;20037;-69
2021/12/20 13:49:13;;;;;;;2.05;0.70;;;;;;;;;;5030943;28;20041;-68
2021/12/20 13:51:54;;;;;;;2.03;0.60;;;;;;;;;;5041062;28;20037;-68
2021/12/20 13:54:26;;;;;;;0.45;0.40;;;;;;;;;;5042738;28;20060;-68
2021/12/20 13:57:11;;;;;;;0.77;0.40;;;;;;;;;;5042432;28;20025;-68
2021/12/20 13:59:46;;;;;;;1.83;0.60;;;;;;;;;;5042756;28;20068;-68
2021/12/20 14:02:14;;;;;;;5.28;0.60;;;;;;;;;;5042950;28;20398;-67
2021/12/20 14:04:42;;;;;;;1.02;0.50;;;;;;;;;;5025411;28;20025;-69
2021/12/20 14:07:27;;;;;;;0.73;0.40;;;;;;;;;;5043023;28;20045;-68
2021/12/20 14:10:00;;;;;;;0.50;0.50;;;;;;;;;;5042821;28;20041;-67
2021/12/20 14:12:43;;;;;;;2.42;0.60;;;;;;;;;;5042937;28;20034;-69
2021/12/20 14:15:14;;;;;;;0.93;0.47;;;;;;;;;;5042925;28;20029;-67
2021/12/20 14:17:59;;;;;;;3.28;0.50;;;;;;;;;;5043183;28;20259;-67
2021/12/20 14:20:58;;;;;;;1.02;0.47;;;;;;;;;;5042586;28;20537;-67
2021/12/20 14:23:24;;;;;;;0.75;0.50;;;;;;;;;;5045504;28;20052;-67
2021/12/20 14:26:25;;;;;;;1.27;0.60;;;;;;;;;;5046421;28;20030;-67
2021/12/20 14:29:05;;;;;;;1.77;0.60;;;;;;;;;;5046683;28;20054;-69
2021/12/20 14:31:50;;;;;;;2.30;1.00;;;;;;;;;;5046656;28;20057;-68
2021/12/20 14:34:15;;;;;;;1.17;0.68;;;;;;;;;;5028963;28;20040;-69
2021/12/20 14:36:43;;;;;;;2.08;0.60;;;;;;;;;;5046162;28;20033;-69
2021/12/20 14:39:12;;;;;;;0.98;0.60;;;;;;;;;;5046031;28;20106;-67
2021/12/20 14:41:39;;;;;;;1.30;0.60;;;;;;;;;;5046897;28;20018;-67
2021/12/20 14:44:10;;;;;;;2.85;0.52;;;;;;;;;;5046287;28;20034;-68
2021/12/20 14:46:56;;;;;;;1.55;0.55;;;;;;;;;;5028593;28;20025;-68
2021/12/20 14:49:28;;;;;;;0.65;0.43;;;;;;;;;;5046474;28;20033;-69
2021/12/20 14:51:54;;;;;;;1.25;0.50;;;;;;;;;;5028530;28;20056;-67
2021/12/20 14:54:23;;;;;;;1.45;0.60;;;;;;;;;;5045762;28;20048;-68
2021/12/20 14:56:55;;;;;;;1.70;0.65;;;;;;;;;;5028392;28;20069;-68
2021/12/20 14:59:24;;;;;;;0.88;0.45;;;;;;;;;;5027639;28;20050;-68
2021/12/20 15:01:51;;;;;;;0.98;0.38;;;;;;;;;;5045911;28;20108;-67
2021/12/20 15:04:17;;;;;;;2.67;0.63;;;;;;;;;;5046048;28;20064;-68
2021/12/20 15:06:56;;;;;;;0.73;0.50;;;;;;;;;;5028024;28;20033;-68
2021/12/20 15:09:23;;;;;;;0.90;0.38;;;;;;;;;;5046025;28;20116;-68
2021/12/20 15:11:49;;;;;;;0.98;0.40;;;;;;;;;;5027678;28;20029;-67
2021/12/20 15:14:15;;;;;;;1.73;0.50;;;;;;;;;;5045673;28;20582;-68
2021/12/20 15:16:41;;;;;;;2.45;0.90;;;;;;;;;;5045658;28;20542;-67
2021/12/20 15:19:06;;;;;;;0.60;0.57;;;;;;;;;;5045710;28;20029;-68
2021/12/20 15:21:33;;;;;;;3.28;0.57;;;;;;;;;;5045117;28;20032;-67
2021/12/20 15:23:59;;;;;;;1.85;0.50;;;;;;;;;;5027508;28;20029;-68